createdAt,value
2018-02-19T00:00:43.740Z,100918.64
2018-02-19T00:03:11.215Z,100915.39
2018-02-19T00:05:38.705Z,100908.54
2018-02-19T00:08:06.182Z,100901.41
2018-02-19T00:10:33.688Z,100899.83
2018-02-19T00:13:01.165Z,100899.33
2018-02-19T00:15:28.646Z,100894.20
2018-02-19T00:17:56.118Z,100892.61
2018-02-19T00:20:23.616Z,100887.19
2018-02-19T00:22:51.092Z,100880.42
2018-02-19T00:25:18.583Z,100874.64
2018-02-19T00:27:46.056Z,100869.67
2018-02-19T00:30:13.541Z,100870.61
2018-02-19T00:32:41.067Z,100874.97
2018-02-19T00:35:08.530Z,100871.00
2018-02-19T00:37:36.007Z,100875.98
2018-02-19T00:40:03.498Z,100871.83
2018-02-19T00:42:30.968Z,100866.16
2018-02-19T00:44:58.455Z,100860.84
2018-02-19T00:47:25.928Z,100866.34
2018-02-19T00:49:53.429Z,100860.73
2018-02-19T00:52:20.898Z,100861.30
2018-02-19T00:54:48.369Z,100859.67
2018-02-19T00:57:15.878Z,100854.20
2018-02-19T00:59:43.344Z,100857.72
2018-02-19T01:02:10.834Z,100849.02
2018-02-19T01:04:38.359Z,100845.47
2018-02-19T01:07:05.845Z,100842.15
2018-02-19T01:09:33.318Z,100843.17
2018-02-19T01:12:00.804Z,100835.48
2018-02-19T01:14:29.227Z,100831.14
2018-02-19T01:16:56.724Z,100840.40
2018-02-19T01:19:24.206Z,100840.45
2018-02-19T01:21:51.702Z,100836.47
2018-02-19T01:24:19.180Z,100837.32
2018-02-19T01:26:46.672Z,100825.50
2018-02-19T01:29:14.138Z,100828.02
2018-02-19T01:31:41.658Z,100830.25
2018-02-19T01:34:09.138Z,100827.80
2018-02-19T01:36:36.628Z,100823.30
2018-02-19T01:39:04.102Z,100819.39
2018-02-19T01:41:31.591Z,100824.34
2018-02-19T01:43:59.068Z,100816.31
2018-02-19T01:46:26.556Z,100813.05
2018-02-19T01:48:54.029Z,100808.15
2018-02-19T01:51:21.522Z,100804.40
2018-02-19T01:53:48.992Z,100799.27
2018-02-19T01:56:16.479Z,100795.75
2018-02-19T01:58:43.947Z,100791.94
2018-02-19T02:01:11.434Z,100798.28
2018-02-19T02:03:38.903Z,100790.83
2018-02-19T02:06:06.394Z,100789.46
2018-02-19T02:08:33.879Z,100788.86
2018-02-19T02:11:01.367Z,100779.44
2018-02-19T02:13:28.845Z,100775.68
2018-02-19T02:15:56.336Z,100771.69
2018-02-19T02:18:23.807Z,100768.91
2018-02-19T02:20:51.278Z,100766.84
2018-02-19T02:23:18.776Z,100763.39
2018-02-19T02:25:46.249Z,100764.78
2018-02-19T02:28:13.745Z,100755.30
2018-02-19T02:30:41.224Z,100757.33
2018-02-19T02:33:08.720Z,100748.25
2018-02-19T02:35:36.192Z,100744.02
2018-02-19T02:38:03.683Z,100751.25
2018-02-19T02:40:31.164Z,100748.89
2018-02-19T02:42:58.659Z,100749.05
2018-02-19T02:45:26.133Z,100745.30
2018-02-19T02:47:53.635Z,100735.05
2018-02-19T02:50:21.111Z,100740.79
2018-02-19T02:52:48.595Z,100737.83
2018-02-19T02:55:16.069Z,100738.67
2018-02-19T02:57:43.559Z,100731.35
2018-02-19T03:00:11.033Z,100745.55
2018-02-19T03:02:38.524Z,100742.05
2018-02-19T03:05:05.993Z,100740.72
2018-02-19T03:07:33.484Z,100732.09
2018-02-19T03:10:00.951Z,100721.95
2018-02-19T03:12:28.434Z,100730.09
2018-02-19T03:14:55.904Z,100732.58
2018-02-19T03:17:23.395Z,100734.34
2018-02-19T03:19:50.862Z,100736.27
2018-02-19T03:22:18.359Z,100734.75
2018-02-19T03:24:45.836Z,100732.28
2018-02-19T03:27:13.336Z,100727.21
2018-02-19T03:29:40.805Z,100729.31
2018-02-19T03:32:08.295Z,100728.97
2018-02-19T03:34:35.763Z,100717.98
2018-02-19T03:37:03.251Z,100718.89
2018-02-19T03:39:30.734Z,100717.44
2018-02-19T03:41:58.228Z,100717.86
2018-02-19T03:44:25.702Z,100717.20
2018-02-19T03:46:53.175Z,100719.95
2018-02-19T03:49:20.672Z,100716.38
2018-02-19T03:51:48.150Z,100718.48
2018-02-19T03:54:15.648Z,100716.00
2018-02-19T03:56:43.134Z,100716.56
2018-02-19T03:59:10.618Z,100719.09
2018-02-19T04:01:38.091Z,100711.22
2018-02-19T04:04:05.574Z,100715.70
2018-02-19T04:06:33.043Z,100715.64
2018-02-19T04:09:00.533Z,100712.31
2018-02-19T04:11:28.002Z,100714.84
2018-02-19T04:13:55.491Z,100709.34
2018-02-19T04:16:22.954Z,100710.25
2018-02-19T04:18:50.444Z,100695.09
2018-02-19T04:21:18.569Z,100703.53
2018-02-19T04:23:46.100Z,100702.20
2018-02-19T04:26:13.563Z,100705.20
2018-02-19T04:28:41.058Z,100707.77
2018-02-19T04:31:08.547Z,100701.22
2018-02-19T04:33:36.044Z,100696.14
2018-02-19T04:36:03.563Z,100693.06
2018-02-19T04:38:31.051Z,100691.80
2018-02-19T04:40:58.514Z,100689.83
2018-02-19T04:43:26.004Z,100692.74
2018-02-19T04:46:01.995Z,100684.52
2018-02-19T04:48:36.679Z,100678.84
2018-02-19T04:51:04.148Z,100672.67
2018-02-19T04:53:31.690Z,100668.36
2018-02-19T04:55:59.160Z,100670.10
2018-02-19T04:58:26.653Z,100666.86
2018-02-19T05:00:54.133Z,100662.97
2018-02-19T05:03:21.632Z,100660.45
2018-02-19T05:05:49.102Z,100662.80
2018-02-19T05:08:16.595Z,100658.65
2018-02-19T05:10:44.059Z,100656.80
2018-02-19T05:13:11.548Z,100649.91
2018-02-19T05:15:39.024Z,100648.91
2018-02-19T05:18:06.516Z,100644.02
2018-02-19T05:20:33.992Z,100647.23
2018-02-19T05:23:01.499Z,100642.77
2018-02-19T05:25:28.963Z,100645.98
2018-02-19T05:27:56.438Z,100645.98
2018-02-19T05:30:23.939Z,100645.73
2018-02-19T05:32:51.416Z,100638.09
2018-02-19T05:35:18.910Z,100621.44
2018-02-19T05:37:46.374Z,100624.00
2018-02-19T05:40:13.866Z,100625.23
2018-02-19T05:42:41.343Z,100627.66
2018-02-19T05:45:08.840Z,100631.75
2018-02-19T05:47:36.365Z,100641.55
2018-02-19T05:50:03.838Z,100642.39
2018-02-19T05:52:31.306Z,100636.39
2018-02-19T05:54:59.251Z,100634.32
2018-02-19T05:57:26.716Z,100640.13
2018-02-19T05:59:54.211Z,100639.64
2018-02-19T06:02:21.685Z,100639.56
2018-02-19T06:04:49.182Z,100640.12
2018-02-19T06:07:16.676Z,100633.71
2018-02-19T06:09:44.174Z,100632.78
2018-02-19T06:12:11.652Z,100635.87
2018-02-19T06:14:39.143Z,100630.88
2018-02-19T06:17:06.621Z,100631.55
2018-02-19T06:19:34.122Z,100636.89
2018-02-19T06:22:01.599Z,100640.27
2018-02-19T06:24:29.092Z,100641.84
2018-02-19T06:26:56.572Z,100642.23
2018-02-19T06:29:24.662Z,100645.70
2018-02-19T06:31:52.143Z,100657.39
2018-02-19T06:34:19.652Z,100649.42
2018-02-19T06:36:47.112Z,100645.27
2018-02-19T06:39:14.608Z,100655.01
2018-02-19T06:41:42.092Z,100651.44
2018-02-19T06:44:10.363Z,100648.27
2018-02-19T06:46:38.775Z,100649.44
2018-02-19T06:49:06.239Z,100643.33
2018-02-19T06:51:33.736Z,100648.33
2018-02-19T06:54:01.215Z,100646.50
2018-02-19T06:56:28.709Z,100646.66
2018-02-19T06:58:56.200Z,100649.13
2018-02-19T07:01:23.703Z,100639.70
2018-02-19T07:03:51.180Z,100635.05
2018-02-19T07:06:18.755Z,100637.14
2018-02-19T07:08:46.217Z,100632.28
2018-02-19T07:11:13.711Z,100642.05
2018-02-19T07:13:41.188Z,100642.02
2018-02-19T07:16:08.680Z,100638.52
2018-02-19T07:18:36.146Z,100629.52
2018-02-19T07:21:03.676Z,100640.36
2018-02-19T07:23:31.395Z,100640.75
2018-02-19T07:25:58.900Z,100630.97
2018-02-19T07:28:26.371Z,100633.63
2018-02-19T07:30:53.852Z,100630.72
2018-02-19T07:33:21.331Z,100630.97
2018-02-19T07:35:48.832Z,100626.31
2018-02-19T07:38:16.303Z,100622.33
2018-02-19T07:40:43.812Z,100626.56
2018-02-19T07:43:11.284Z,100633.08
2018-02-19T07:45:38.771Z,100629.84
2018-02-19T07:48:07.172Z,100626.20
2018-02-19T07:50:34.693Z,100625.38
2018-02-19T07:53:12.100Z,100619.64
2018-02-19T07:55:39.600Z,100621.02
2018-02-19T07:58:07.079Z,100616.36
2018-02-19T08:00:34.567Z,100608.72
2018-02-19T08:03:02.027Z,100603.91
2018-02-19T08:05:30.353Z,100606.23
2018-02-19T08:07:57.824Z,100604.72
2018-02-19T08:10:25.307Z,100599.70
2018-02-19T08:12:52.776Z,100604.56
2018-02-19T08:15:20.268Z,100600.70
2018-02-19T08:17:47.744Z,100599.37
2018-02-19T08:20:15.239Z,100604.02
2018-02-19T08:22:42.720Z,100608.10
2018-02-19T08:25:10.179Z,100615.38
2018-02-19T08:27:37.668Z,100605.94
2018-02-19T08:30:05.151Z,100611.42
2018-02-19T08:32:32.651Z,100614.27
2018-02-19T08:35:00.148Z,100611.31
2018-02-19T08:37:27.647Z,100609.28
2018-02-19T08:40:01.076Z,100609.70
2018-02-19T08:42:28.567Z,100596.59
2018-02-19T08:44:56.036Z,100595.85
2018-02-19T08:47:23.519Z,100596.33
2018-02-19T08:49:51.009Z,100599.00
2018-02-19T08:52:18.497Z,100592.52
2018-02-19T08:54:46.057Z,100587.52
2018-02-19T08:57:13.599Z,100577.99
2018-02-19T08:59:41.099Z,100580.95
2018-02-19T09:02:08.581Z,100563.38
2018-02-19T09:04:36.047Z,100571.97
2018-02-19T09:07:03.531Z,100571.23
2018-02-19T09:09:30.998Z,100566.04
2018-02-19T09:11:58.479Z,100563.70
2018-02-19T09:14:25.955Z,100562.64
2018-02-19T09:16:54.167Z,100560.88
2018-02-19T09:19:21.631Z,100559.04
2018-02-19T09:21:49.119Z,100555.99
2018-02-19T09:24:17.515Z,100544.21
2018-02-19T09:26:45.004Z,100549.02
2018-02-19T09:29:12.483Z,100553.09
2018-02-19T09:31:39.973Z,100550.70
2018-02-19T09:34:07.469Z,100545.77
2018-02-19T09:36:34.961Z,100547.69
2018-02-19T09:39:02.423Z,100545.05
2018-02-19T09:41:29.918Z,100540.52
2018-02-19T09:43:57.387Z,100538.92
2018-02-19T09:46:24.879Z,100535.26
2018-02-19T09:48:52.354Z,100539.21
2018-02-19T09:51:19.815Z,100542.86
2018-02-19T09:53:47.294Z,100545.49
2018-02-19T09:56:14.778Z,100550.64
2018-02-19T09:58:42.258Z,100551.40
2018-02-19T10:01:09.723Z,100549.29
2018-02-19T10:03:37.207Z,100545.91
2018-02-19T10:06:04.682Z,100542.59
2018-02-19T10:08:32.203Z,100539.04
2018-02-19T10:10:59.673Z,100537.70
2018-02-19T10:13:27.162Z,100538.51
2018-02-19T10:15:54.656Z,100538.28
2018-02-19T10:18:22.143Z,100540.06
2018-02-19T10:20:49.611Z,100537.81
2018-02-19T10:23:17.103Z,100536.21
2018-02-19T10:25:44.569Z,100535.72
2018-02-19T10:28:13.559Z,100535.63
2018-02-19T10:30:43.008Z,100523.34
2018-02-19T10:33:16.599Z,100527.69
2018-02-19T10:35:44.068Z,100526.05
2018-02-19T10:38:11.558Z,100526.04
2018-02-19T10:40:39.032Z,100515.69
2018-02-19T10:43:06.524Z,100521.44
2018-02-19T10:45:33.993Z,100523.66
2018-02-19T10:48:01.475Z,100519.33
2018-02-19T10:50:28.949Z,100515.17
2018-02-19T10:52:56.443Z,100507.73
2018-02-19T10:55:23.922Z,100510.81
2018-02-19T10:57:51.402Z,100514.64
2018-02-19T11:00:24.548Z,100511.83
2018-02-19T11:02:52.069Z,100506.91
2018-02-19T11:05:19.557Z,100507.34
2018-02-19T11:07:57.032Z,100500.42
2018-02-19T11:10:24.503Z,100507.45
2018-02-19T11:12:51.983Z,100511.58
2018-02-19T11:15:19.459Z,100506.72
2018-02-19T11:17:46.960Z,100509.69
2018-02-19T11:20:14.479Z,100521.05
2018-02-19T11:22:41.967Z,100520.18
2018-02-19T11:25:09.430Z,100509.59
2018-02-19T11:27:36.928Z,100510.64
2018-02-19T11:30:04.392Z,100504.44
2018-02-19T11:32:31.885Z,100503.78
2018-02-19T11:34:59.377Z,100509.31
2018-02-19T11:37:26.851Z,100503.09
2018-02-19T11:39:54.331Z,100501.06
2018-02-19T11:42:21.801Z,100495.23
2018-02-19T11:44:49.304Z,100496.63
2018-02-19T11:47:16.772Z,100490.56
2018-02-19T11:49:44.264Z,100489.52
2018-02-19T11:52:11.731Z,100481.69
2018-02-19T11:54:42.339Z,100480.58
2018-02-19T11:57:09.812Z,100479.11
2018-02-19T11:59:37.963Z,100476.66
2018-02-19T12:02:05.431Z,100475.52
2018-02-19T12:04:32.922Z,100474.01
2018-02-19T12:07:00.400Z,100480.70
2018-02-19T12:09:27.876Z,100475.68
2018-02-19T12:11:55.464Z,100471.45
2018-02-19T12:14:23.815Z,100468.09
2018-02-19T12:16:51.280Z,100463.68
2018-02-19T12:19:18.763Z,100453.49
2018-02-19T12:21:46.239Z,100455.87
2018-02-19T12:24:16.760Z,100454.68
2018-02-19T12:26:44.230Z,100448.77
2018-02-19T12:29:11.733Z,100448.50
2018-02-19T12:31:39.207Z,100447.53
2018-02-19T12:34:06.701Z,100442.67
2018-02-19T12:36:34.175Z,100446.83
2018-02-19T12:39:01.655Z,100443.21
2018-02-19T12:41:29.127Z,100442.37
2018-02-19T12:43:56.618Z,100441.66
2018-02-19T12:46:24.083Z,100437.79
2018-02-19T12:48:51.579Z,100434.19
2018-02-19T12:51:19.055Z,100434.51
2018-02-19T12:53:46.554Z,100428.60
2018-02-19T12:56:14.023Z,100429.38
2018-02-19T12:58:41.516Z,100425.95
2018-02-19T13:01:08.984Z,100422.77
2018-02-19T13:03:36.461Z,100417.41
2018-02-19T13:06:03.947Z,100412.75
2018-02-19T13:08:31.403Z,100413.11
2018-02-19T13:10:58.883Z,100415.96
2018-02-19T13:13:26.347Z,100410.14
2018-02-19T13:15:53.831Z,100407.63
2018-02-19T13:18:21.356Z,100406.52
2018-02-19T13:20:48.847Z,100396.48
2018-02-19T13:23:16.314Z,100394.72
2018-02-19T13:25:43.804Z,100392.81
2018-02-19T13:28:11.263Z,100388.78
2018-02-19T13:30:38.752Z,100384.52
2018-02-19T13:33:06.224Z,100387.64
2018-02-19T13:35:33.716Z,100388.82
2018-02-19T13:38:01.179Z,100385.81
2018-02-19T13:40:28.664Z,100395.55
2018-02-19T13:42:56.131Z,100384.80
2018-02-19T13:45:23.623Z,100372.75
2018-02-19T13:47:51.087Z,100377.73
2018-02-19T13:50:18.576Z,100377.88
2018-02-19T13:52:46.867Z,100378.02
2018-02-19T13:55:14.354Z,100379.70
2018-02-19T13:57:41.831Z,100371.88
2018-02-19T14:00:10.036Z,100371.55
2018-02-19T14:02:37.503Z,100362.52
2018-02-19T14:05:04.991Z,100364.13
2018-02-19T14:07:32.465Z,100367.48
2018-02-19T14:09:59.959Z,100361.70
2018-02-19T14:12:28.368Z,100347.66
2018-02-19T14:14:55.850Z,100356.40
2018-02-19T14:17:23.319Z,100359.25
2018-02-19T14:19:50.811Z,100351.08
2018-02-19T14:22:19.273Z,100351.30
2018-02-19T14:24:46.746Z,100349.59
2018-02-19T14:27:14.234Z,100346.90
2018-02-19T14:29:41.703Z,100348.65
2018-02-19T14:32:09.211Z,100340.83
2018-02-19T14:34:36.673Z,100350.09
2018-02-19T14:37:04.159Z,100351.45
2018-02-19T14:39:31.635Z,100353.69
2018-02-19T14:42:13.443Z,100353.92
2018-02-19T14:44:40.916Z,100350.45
2018-02-19T14:47:08.415Z,100345.33
2018-02-19T14:49:36.736Z,100342.01
2018-02-19T14:52:04.236Z,100343.78
2018-02-19T14:54:31.703Z,100343.06
2018-02-19T14:56:59.184Z,100341.80
2018-02-19T14:59:26.664Z,100337.75
2018-02-19T15:01:54.156Z,100336.08
2018-02-19T15:04:21.636Z,100336.31
2018-02-19T15:06:49.123Z,100337.19
2018-02-19T15:09:16.599Z,100334.66
2018-02-19T15:11:44.080Z,100327.23
2018-02-19T15:14:12.465Z,100324.38
2018-02-19T15:16:39.951Z,100321.31
2018-02-19T15:19:07.411Z,100323.36
2018-02-19T15:21:34.895Z,100320.64
2018-02-19T15:24:02.360Z,100316.28
2018-02-19T15:26:29.847Z,100326.40
2018-02-19T15:28:57.323Z,100322.59
2018-02-19T15:31:24.799Z,100323.52
2018-02-19T15:33:52.284Z,100322.11
2018-02-19T15:36:19.774Z,100326.78
2018-02-19T15:38:47.252Z,100328.98
2018-02-19T15:41:14.743Z,100325.47
2018-02-19T15:43:42.214Z,100322.56
2018-02-19T15:46:09.695Z,100320.68
2018-02-19T15:48:37.171Z,100313.88
2018-02-19T15:51:04.662Z,100314.81
2018-02-19T15:53:32.128Z,100305.58
2018-02-19T15:55:59.620Z,100305.16
2018-02-19T15:58:27.099Z,100304.73
2018-02-19T16:00:54.564Z,100301.44
2018-02-19T16:03:22.051Z,100302.02
2018-02-19T16:05:49.510Z,100304.02
2018-02-19T16:08:18.022Z,100300.48
2018-02-19T16:10:45.536Z,100301.59
2018-02-19T16:13:13.052Z,100292.13
2018-02-19T16:15:40.793Z,100300.88
2018-02-19T16:18:08.318Z,100292.36
2018-02-19T16:20:35.837Z,100289.54
2018-02-19T16:23:03.418Z,100278.73
2018-02-19T16:25:36.512Z,100276.55
2018-02-19T16:28:04.139Z,100279.00
2018-02-19T16:30:31.725Z,100282.59
2018-02-19T16:32:59.287Z,100281.37
2018-02-19T16:35:26.829Z,100290.62
2018-02-19T16:37:54.393Z,100295.87
2018-02-19T16:40:22.022Z,100292.78
2018-02-19T16:42:49.592Z,100289.94
2018-02-19T16:45:18.235Z,100286.84
2018-02-19T16:50:17.836Z,100284.97
2018-02-19T16:55:17.696Z,100289.25
2018-02-19T16:57:45.241Z,100290.59
2018-02-19T17:00:12.765Z,100288.76
2018-02-19T17:05:21.544Z,100293.53
2018-02-19T17:07:49.462Z,100288.30
2018-02-19T17:10:17.477Z,100290.87
2018-02-19T17:12:46.269Z,100282.40
2018-02-19T17:15:13.877Z,100279.23
2018-02-19T17:17:41.397Z,100278.48
2018-02-19T17:20:08.972Z,100282.21
2018-02-19T17:22:36.481Z,100285.11
2018-02-19T17:25:04.104Z,100286.64
2018-02-19T17:27:32.680Z,100284.83
2018-02-19T17:30:00.281Z,100287.48
2018-02-19T17:32:27.872Z,100291.62
2018-02-19T17:34:55.492Z,100284.30
2018-02-19T17:37:23.062Z,100293.58
2018-02-19T17:39:50.632Z,100296.98
2018-02-19T17:42:18.189Z,100287.00
2018-02-19T17:44:45.733Z,100290.61
2018-02-19T17:47:13.339Z,100291.22
2018-02-19T17:49:40.883Z,100288.85
2018-02-19T17:52:09.549Z,100289.45
2018-02-19T17:54:37.107Z,100289.16
2018-02-19T17:57:04.851Z,100285.31
2018-02-19T17:59:32.736Z,100294.48
2018-02-19T18:02:00.277Z,100290.15
2018-02-19T18:04:27.920Z,100284.48
2018-02-19T18:06:55.420Z,100280.14
2018-02-19T18:09:23.058Z,100291.48
2018-02-19T18:11:50.640Z,100282.81
2018-02-19T18:14:18.211Z,100287.45
2018-02-19T18:16:45.996Z,100283.22
2018-02-19T18:19:13.601Z,100286.11
2018-02-19T18:24:14.347Z,100298.06
2018-02-19T18:26:41.899Z,100296.94
2018-02-19T18:29:09.468Z,100296.23
2018-02-19T18:31:37.012Z,100295.40
2018-02-19T18:34:04.563Z,100295.48
2018-02-19T18:36:32.128Z,100299.33
2018-02-19T18:41:31.561Z,100293.23
2018-02-19T18:43:59.980Z,100292.64
2018-02-19T18:46:27.652Z,100300.05
2018-02-19T18:48:55.273Z,100301.17
2018-02-19T18:51:23.276Z,100298.59
2018-02-19T18:53:50.849Z,100296.02
2018-02-19T18:56:18.377Z,100289.22
2018-02-19T18:58:46.001Z,100288.40
2018-02-19T19:01:13.550Z,100293.95
2018-02-19T19:03:42.047Z,100294.89
2018-02-19T19:06:09.551Z,100295.22
2018-02-19T19:08:49.251Z,100291.91
2018-02-19T19:11:16.719Z,100294.48
2018-02-19T19:13:44.219Z,100289.02
2018-02-19T19:16:11.700Z,100284.67
2018-02-19T19:18:39.188Z,100292.95
2018-02-19T19:21:06.676Z,100295.61
2018-02-19T19:23:34.185Z,100295.61
2018-02-19T19:26:01.679Z,100291.37
2018-02-19T19:28:29.166Z,100296.52
2018-02-19T19:30:56.683Z,100290.42
2018-02-19T19:33:24.200Z,100290.02
2018-02-19T19:35:51.702Z,100288.59
2018-02-19T19:38:19.176Z,100291.36
2018-02-19T19:40:46.827Z,100288.37
2018-02-19T19:43:14.312Z,100289.59
2018-02-19T19:45:41.827Z,100295.38
2018-02-19T19:48:09.312Z,100288.25
2018-02-19T19:50:36.804Z,100282.58
2018-02-19T19:53:04.294Z,100285.44
2018-02-19T19:55:31.835Z,100291.22
2018-02-19T19:57:59.329Z,100286.38
2018-02-19T20:00:27.113Z,100287.80
2018-02-19T20:02:55.054Z,100288.02
2018-02-19T20:05:22.578Z,100283.07
2018-02-19T20:07:50.047Z,100290.48
2018-02-19T20:10:17.591Z,100287.70
2018-02-19T20:12:45.076Z,100287.08
2018-02-19T20:15:12.596Z,100275.11
2018-02-19T20:17:40.072Z,100284.98
2018-02-19T20:20:07.573Z,100281.48
2018-02-19T20:22:35.043Z,100280.75
2018-02-19T20:25:02.545Z,100279.89
2018-02-19T20:27:30.147Z,100282.78
2018-02-19T20:29:57.729Z,100277.84
2018-02-19T20:32:25.264Z,100274.23
2018-02-19T20:34:52.844Z,100274.33
2018-02-19T20:37:20.507Z,100276.95
2018-02-19T20:39:48.020Z,100283.93
2018-02-19T20:42:15.514Z,100281.25
2018-02-19T20:44:43.100Z,100274.41
2018-02-19T20:47:10.720Z,100278.04
2018-02-19T20:49:38.386Z,100272.17
2018-02-19T20:52:05.922Z,100279.50
2018-02-19T20:54:33.627Z,100270.03
2018-02-19T20:57:01.129Z,100274.53
2018-02-19T20:59:28.667Z,100268.55
2018-02-19T21:01:56.165Z,100275.09
2018-02-19T21:04:23.672Z,100280.30
2018-02-19T21:06:51.289Z,100271.34
2018-02-19T21:09:18.927Z,100263.66
2018-02-19T21:11:46.468Z,100265.24
2018-02-19T21:14:13.958Z,100266.28
2018-02-19T21:16:41.642Z,100270.89
2018-02-19T21:19:09.273Z,100254.20
2018-02-19T21:21:36.819Z,100257.89
2018-02-19T21:24:04.479Z,100259.02
2018-02-19T21:26:31.989Z,100259.32
2018-02-19T21:28:59.489Z,100252.12
2018-02-19T21:31:26.987Z,100254.77
2018-02-19T21:33:54.709Z,100249.09
2018-02-19T21:36:22.214Z,100250.92
2018-02-19T21:38:49.707Z,100245.33
2018-02-19T21:41:17.265Z,100249.22
2018-02-19T21:43:44.870Z,100246.16
2018-02-19T21:46:12.405Z,100238.02
2018-02-19T21:48:40.073Z,100232.45
2018-02-19T21:51:07.545Z,100235.42
2018-02-19T21:53:35.044Z,100229.16
2018-02-19T21:56:02.601Z,100225.35
2018-02-19T21:58:30.103Z,100224.39
2018-02-19T22:00:57.763Z,100220.09
2018-02-19T22:03:25.274Z,100224.60
2018-02-19T22:05:52.744Z,100221.39
2018-02-19T22:08:20.249Z,100227.99
2018-02-19T22:10:47.720Z,100236.39
2018-02-19T22:13:15.211Z,100238.31
2018-02-19T22:15:42.680Z,100235.77
2018-02-19T22:18:10.172Z,100232.12
2018-02-19T22:20:37.658Z,100231.17
2018-02-19T22:23:05.203Z,100233.92
2018-02-19T22:25:32.668Z,100239.39
2018-02-19T22:28:00.645Z,100232.20
2018-02-19T22:30:28.527Z,100235.19
2018-02-19T22:32:56.049Z,100233.92
2018-02-19T22:35:23.561Z,100236.42
2018-02-19T22:37:51.016Z,100234.17
2018-02-19T22:40:18.515Z,100237.58
2018-02-19T22:42:46.013Z,100234.30
2018-02-19T22:45:13.488Z,100233.80
2018-02-19T22:47:40.975Z,100243.63
2018-02-19T22:50:08.456Z,100244.77
2018-02-19T22:52:35.969Z,100241.91
2018-02-19T22:55:03.443Z,100247.86
2018-02-19T22:57:30.931Z,100247.28
2018-02-19T22:59:58.395Z,100257.46
2018-02-19T23:02:25.880Z,100263.58
2018-02-19T23:04:53.343Z,100262.35
2018-02-19T23:07:20.824Z,100265.38
2018-02-19T23:09:48.304Z,100263.32
2018-02-19T23:12:15.792Z,100265.74
2018-02-19T23:14:43.249Z,100266.48
2018-02-19T23:17:10.752Z,100268.00
2018-02-19T23:19:38.211Z,100260.30
2018-02-19T23:22:05.704Z,100260.05
2018-02-19T23:24:33.178Z,100261.66
2018-02-19T23:27:00.686Z,100263.08
2018-02-19T23:29:28.176Z,100265.95
2018-02-19T23:31:55.648Z,100268.35
2018-02-19T23:34:23.155Z,100260.97
2018-02-19T23:36:50.636Z,100254.28
2018-02-19T23:39:18.135Z,100258.62
2018-02-19T23:41:45.608Z,100262.88
2018-02-19T23:44:13.116Z,100258.62
2018-02-19T23:46:40.590Z,100259.42
2018-02-19T23:49:08.092Z,100256.45
2018-02-19T23:51:35.564Z,100265.28
2018-02-19T23:54:03.062Z,100265.28
2018-02-19T23:56:30.541Z,100259.58
2018-02-19T23:58:58.037Z,100265.27
